sensor_id;sensor_type;location;lat;lon;timestamp;P1;durP1;ratioP1;P2;durP2;ratioP2
13432;SDS011;6789;47.678;9.158;2023-08-12T00:04:07;4.63;;;3.53;;
13432;SDS011;6789;47.678;9.158;2023-08-12T00:09:07;5.32;;;4.38;;
13432;SDS011;6789;47.678;9.158;2023-08-12T00:14:01;6.22;;;4.60;;
13432;SDS011;6789;47.678;9.158;2023-08-12T00:18:53;6.18;;;4.05;;
13432;SDS011;6789;47.678;9.158;2023-08-12T00:23:57;5.93;;;4.43;;
13432;SDS011;6789;47.678;9.158;2023-08-12T00:29:13;5.88;;;4.85;;
13432;SDS011;6789;47.678;9.158;2023-08-12T00:34:21;9.70;;;5.05;;
13432;SDS011;6789;47.678;9.158;2023-08-12T00:39:26;8.07;;;5.13;;
13432;SDS011;6789;47.678;9.158;2023-08-12T00:44:18;7.85;;;5.20;;
13432;SDS011;6789;47.678;9.158;2023-08-12T00:49:10;5.70;;;4.65;;
13432;SDS011;6789;47.678;9.158;2023-08-12T00:54:04;4.78;;;4.18;;
13432;SDS011;6789;47.678;9.158;2023-08-12T00:59:13;7.45;;;4.78;;
13432;SDS011;6789;47.678;9.158;2023-08-12T01:04:22;4.63;;;4.05;;
13432;SDS011;6789;47.678;9.158;2023-08-12T01:09:48;8.52;;;4.07;;
13432;SDS011;6789;47.678;9.158;2023-08-12T01:15:07;4.60;;;3.88;;
13432;SDS011;6789;47.678;9.158;2023-08-12T01:20:13;4.95;;;4.32;;
13432;SDS011;6789;47.678;9.158;2023-08-12T01:25:06;4.45;;;4.05;;
13432;SDS011;6789;47.678;9.158;2023-08-12T01:30:13;4.88;;;3.50;;
13432;SDS011;6789;47.678;9.158;2023-08-12T01:35:23;5.28;;;4.03;;
13432;SDS011;6789;47.678;9.158;2023-08-12T01:40:26;4.25;;;3.47;;
13432;SDS011;6789;47.678;9.158;2023-08-12T01:45:35;4.95;;;3.70;;
13432;SDS011;6789;47.678;9.158;2023-08-12T01:50:41;5.25;;;3.70;;
13432;SDS011;6789;47.678;9.158;2023-08-12T01:55:52;4.20;;;3.80;;
13432;SDS011;6789;47.678;9.158;2023-08-12T02:00:44;4.35;;;3.75;;
13432;SDS011;6789;47.678;9.158;2023-08-12T02:05:36;5.00;;;3.90;;
13432;SDS011;6789;47.678;9.158;2023-08-12T02:10:32;6.80;;;4.00;;
13432;SDS011;6789;47.678;9.158;2023-08-12T02:15:23;4.90;;;3.92;;
13432;SDS011;6789;47.678;9.158;2023-08-12T02:20:15;4.97;;;3.83;;
13432;SDS011;6789;47.678;9.158;2023-08-12T02:25:08;5.20;;;4.00;;
13432;SDS011;6789;47.678;9.158;2023-08-12T02:29:59;4.13;;;3.70;;
13432;SDS011;6789;47.678;9.158;2023-08-12T02:34:51;7.15;;;4.05;;
13432;SDS011;6789;47.678;9.158;2023-08-12T02:39:43;4.90;;;3.55;;
13432;SDS011;6789;47.678;9.158;2023-08-12T02:44:35;7.13;;;4.20;;
13432;SDS011;6789;47.678;9.158;2023-08-12T02:49:27;4.72;;;3.47;;
13432;SDS011;6789;47.678;9.158;2023-08-12T02:54:19;5.30;;;3.65;;
13432;SDS011;6789;47.678;9.158;2023-08-12T02:59:10;6.10;;;3.90;;
13432;SDS011;6789;47.678;9.158;2023-08-12T03:04:02;4.78;;;4.20;;
13432;SDS011;6789;47.678;9.158;2023-08-12T03:08:54;5.15;;;3.90;;
13432;SDS011;6789;47.678;9.158;2023-08-12T03:13:46;5.57;;;3.95;;
13432;SDS011;6789;47.678;9.158;2023-08-12T03:18:38;4.47;;;3.75;;
13432;SDS011;6789;47.678;9.158;2023-08-12T03:23:30;5.15;;;4.13;;
13432;SDS011;6789;47.678;9.158;2023-08-12T03:28:22;6.75;;;4.00;;
13432;SDS011;6789;47.678;9.158;2023-08-12T03:33:14;4.65;;;4.18;;
13432;SDS011;6789;47.678;9.158;2023-08-12T03:38:05;5.10;;;3.70;;
13432;SDS011;6789;47.678;9.158;2023-08-12T03:42:57;5.05;;;4.03;;
13432;SDS011;6789;47.678;9.158;2023-08-12T03:47:49;8.65;;;4.22;;
13432;SDS011;6789;47.678;9.158;2023-08-12T03:52:41;5.15;;;4.20;;
13432;SDS011;6789;47.678;9.158;2023-08-12T03:57:33;5.15;;;4.38;;
13432;SDS011;6789;47.678;9.158;2023-08-12T04:02:38;6.07;;;4.32;;
13432;SDS011;6789;47.678;9.158;2023-08-12T04:07:31;6.45;;;4.50;;
13432;SDS011;6789;47.678;9.158;2023-08-12T04:12:23;9.30;;;4.45;;
13432;SDS011;6789;47.678;9.158;2023-08-12T04:17:14;5.80;;;4.13;;
13432;SDS011;6789;47.678;9.158;2023-08-12T04:22:21;5.90;;;4.95;;
13432;SDS011;6789;47.678;9.158;2023-08-12T04:27:13;4.90;;;3.90;;
13432;SDS011;6789;47.678;9.158;2023-08-12T04:32:21;4.38;;;3.83;;
13432;SDS011;6789;47.678;9.158;2023-08-12T04:37:13;5.80;;;4.35;;
13432;SDS011;6789;47.678;9.158;2023-08-12T04:42:04;6.68;;;4.40;;
13432;SDS011;6789;47.678;9.158;2023-08-12T04:46:56;5.63;;;4.63;;
13432;SDS011;6789;47.678;9.158;2023-08-12T04:51:50;4.68;;;4.18;;
13432;SDS011;6789;47.678;9.158;2023-08-12T04:56:43;4.43;;;4.00;;
13432;SDS011;6789;47.678;9.158;2023-08-12T05:01:35;5.18;;;3.92;;
13432;SDS011;6789;47.678;9.158;2023-08-12T05:06:35;5.72;;;4.65;;
13432;SDS011;6789;47.678;9.158;2023-08-12T05:11:26;5.30;;;4.10;;
13432;SDS011;6789;47.678;9.158;2023-08-12T05:16:18;5.00;;;4.50;;
13432;SDS011;6789;47.678;9.158;2023-08-12T05:21:10;4.70;;;4.18;;
13432;SDS011;6789;47.678;9.158;2023-08-12T05:26:02;6.40;;;4.07;;
13432;SDS011;6789;47.678;9.158;2023-08-12T05:30:53;5.53;;;4.25;;
13432;SDS011;6789;47.678;9.158;2023-08-12T05:35:47;5.47;;;3.67;;
13432;SDS011;6789;47.678;9.158;2023-08-12T05:40:39;4.63;;;4.10;;
13432;SDS011;6789;47.678;9.158;2023-08-12T05:45:32;6.90;;;3.70;;
13432;SDS011;6789;47.678;9.158;2023-08-12T05:50:23;5.25;;;4.05;;
13432;SDS011;6789;47.678;9.158;2023-08-12T05:55:15;5.10;;;4.45;;
13432;SDS011;6789;47.678;9.158;2023-08-12T06:00:07;7.20;;;5.07;;
13432;SDS011;6789;47.678;9.158;2023-08-12T06:05:00;4.82;;;4.32;;
13432;SDS011;6789;47.678;9.158;2023-08-12T06:10:07;5.50;;;4.50;;
13432;SDS011;6789;47.678;9.158;2023-08-12T06:14:59;6.00;;;4.70;;
13432;SDS011;6789;47.678;9.158;2023-08-12T06:20:06;5.75;;;4.45;;
13432;SDS011;6789;47.678;9.158;2023-08-12T06:24:58;7.30;;;4.38;;
13432;SDS011;6789;47.678;9.158;2023-08-12T06:29:50;5.03;;;4.40;;
13432;SDS011;6789;47.678;9.158;2023-08-12T06:34:56;5.13;;;4.55;;
13432;SDS011;6789;47.678;9.158;2023-08-12T06:39:48;6.28;;;4.80;;
13432;SDS011;6789;47.678;9.158;2023-08-12T06:44:40;6.13;;;4.68;;
13432;SDS011;6789;47.678;9.158;2023-08-12T06:49:32;5.72;;;4.97;;
13432;SDS011;6789;47.678;9.158;2023-08-12T06:54:23;5.47;;;4.63;;
13432;SDS011;6789;47.678;9.158;2023-08-12T06:59:15;5.28;;;4.32;;
13432;SDS011;6789;47.678;9.158;2023-08-12T07:04:07;5.68;;;4.85;;
13432;SDS011;6789;47.678;9.158;2023-08-12T07:09:07;6.00;;;4.72;;
13432;SDS011;6789;47.678;9.158;2023-08-12T07:14:13;5.53;;;4.45;;
13432;SDS011;6789;47.678;9.158;2023-08-12T07:19:19;6.03;;;4.78;;
13432;SDS011;6789;47.678;9.158;2023-08-12T07:24:27;8.73;;;5.10;;
13432;SDS011;6789;47.678;9.158;2023-08-12T07:29:33;5.05;;;4.55;;
13432;SDS011;6789;47.678;9.158;2023-08-12T07:34:39;4.75;;;4.15;;
13432;SDS011;6789;47.678;9.158;2023-08-12T07:39:45;4.32;;;3.90;;
13432;SDS011;6789;47.678;9.158;2023-08-12T07:44:51;6.20;;;4.30;;
13432;SDS011;6789;47.678;9.158;2023-08-12T07:49:43;5.22;;;4.47;;
13432;SDS011;6789;47.678;9.158;2023-08-12T07:54:35;4.47;;;4.07;;
13432;SDS011;6789;47.678;9.158;2023-08-12T07:59:27;5.82;;;3.92;;
13432;SDS011;6789;47.678;9.158;2023-08-12T08:04:33;5.80;;;4.15;;
13432;SDS011;6789;47.678;9.158;2023-08-12T08:09:25;4.97;;;4.25;;
13432;SDS011;6789;47.678;9.158;2023-08-12T08:14:31;6.43;;;3.78;;
13432;SDS011;6789;47.678;9.158;2023-08-12T08:19:28;4.15;;;3.72;;
13432;SDS011;6789;47.678;9.158;2023-08-12T08:24:36;5.38;;;3.72;;
13432;SDS011;6789;47.678;9.158;2023-08-12T08:29:43;4.32;;;3.92;;
13432;SDS011;6789;47.678;9.158;2023-08-12T08:34:49;5.07;;;3.50;;
13432;SDS011;6789;47.678;9.158;2023-08-12T08:39:45;4.57;;;3.30;;
13432;SDS011;6789;47.678;9.158;2023-08-12T08:44:45;3.95;;;3.55;;
13432;SDS011;6789;47.678;9.158;2023-08-12T08:49:42;7.93;;;4.10;;
13432;SDS011;6789;47.678;9.158;2023-08-12T08:54:35;7.07;;;4.05;;
13432;SDS011;6789;47.678;9.158;2023-08-12T08:59:42;4.43;;;4.03;;
13432;SDS011;6789;47.678;9.158;2023-08-12T09:04:48;4.95;;;3.55;;
13432;SDS011;6789;47.678;9.158;2023-08-12T09:09:42;7.00;;;4.00;;
13432;SDS011;6789;47.678;9.158;2023-08-12T09:14:54;6.00;;;3.47;;
13432;SDS011;6789;47.678;9.158;2023-08-12T09:19:46;4.75;;;3.80;;
13432;SDS011;6789;47.678;9.158;2023-08-12T09:24:38;4.45;;;3.78;;
13432;SDS011;6789;47.678;9.158;2023-08-12T09:29:55;4.72;;;3.67;;
13432;SDS011;6789;47.678;9.158;2023-08-12T09:35:15;4.40;;;3.83;;
13432;SDS011;6789;47.678;9.158;2023-08-12T09:40:07;3.53;;;3.22;;
13432;SDS011;6789;47.678;9.158;2023-08-12T09:45:00;4.80;;;3.72;;
13432;SDS011;6789;47.678;9.158;2023-08-12T09:49:52;3.83;;;3.42;;
13432;SDS011;6789;47.678;9.158;2023-08-12T09:54:44;5.25;;;3.67;;
13432;SDS011;6789;47.678;9.158;2023-08-12T09:59:38;5.22;;;3.90;;
13432;SDS011;6789;47.678;9.158;2023-08-12T10:04:35;5.07;;;3.78;;
13432;SDS011;6789;47.678;9.158;2023-08-12T10:09:35;4.72;;;3.70;;
13432;SDS011;6789;47.678;9.158;2023-08-12T10:14:29;4.03;;;3.70;;
13432;SDS011;6789;47.678;9.158;2023-08-12T10:19:22;5.35;;;3.80;;
13432;SDS011;6789;47.678;9.158;2023-08-12T10:24:30;4.40;;;3.30;;
13432;SDS011;6789;47.678;9.158;2023-08-12T10:29:25;5.97;;;3.60;;
13432;SDS011;6789;47.678;9.158;2023-08-12T10:34:20;7.22;;;3.80;;
13432;SDS011;6789;47.678;9.158;2023-08-12T10:39:14;5.47;;;4.15;;
13432;SDS011;6789;47.678;9.158;2023-08-12T10:44:20;4.50;;;4.10;;
13432;SDS011;6789;47.678;9.158;2023-08-12T10:49:18;3.92;;;3.60;;
13432;SDS011;6789;47.678;9.158;2023-08-12T10:54:27;8.07;;;4.03;;
13432;SDS011;6789;47.678;9.158;2023-08-12T11:04:54;6.20;;;3.95;;
13432;SDS011;6789;47.678;9.158;2023-08-12T11:09:50;6.90;;;4.55;;
13432;SDS011;6789;47.678;9.158;2023-08-12T11:15:08;4.10;;;3.70;;
13432;SDS011;6789;47.678;9.158;2023-08-12T11:20:17;5.85;;;3.85;;
13432;SDS011;6789;47.678;9.158;2023-08-12T11:25:24;5.30;;;3.45;;
13432;SDS011;6789;47.678;9.158;2023-08-12T11:30:36;5.65;;;4.00;;
13432;SDS011;6789;47.678;9.158;2023-08-12T11:35:48;4.55;;;3.72;;
13432;SDS011;6789;47.678;9.158;2023-08-12T11:40:55;4.85;;;3.80;;
13432;SDS011;6789;47.678;9.158;2023-08-12T11:46:01;5.38;;;3.60;;
13432;SDS011;6789;47.678;9.158;2023-08-12T11:51:07;6.18;;;4.05;;
13432;SDS011;6789;47.678;9.158;2023-08-12T12:02:04;4.05;;;3.40;;
13432;SDS011;6789;47.678;9.158;2023-08-12T12:07:01;5.63;;;3.97;;
13432;SDS011;6789;47.678;9.158;2023-08-12T12:12:11;4.65;;;3.40;;
13432;SDS011;6789;47.678;9.158;2023-08-12T12:17:17;4.30;;;3.90;;
13432;SDS011;6789;47.678;9.158;2023-08-12T12:22:11;5.57;;;3.55;;
13432;SDS011;6789;47.678;9.158;2023-08-12T12:27:14;4.07;;;3.50;;
13432;SDS011;6789;47.678;9.158;2023-08-12T12:32:06;4.35;;;3.30;;
13432;SDS011;6789;47.678;9.158;2023-08-12T12:37:15;6.38;;;3.00;;
13432;SDS011;6789;47.678;9.158;2023-08-12T12:42:21;4.72;;;3.25;;
13432;SDS011;6789;47.678;9.158;2023-08-12T12:47:27;3.50;;;2.95;;
13432;SDS011;6789;47.678;9.158;2023-08-12T12:52:33;5.60;;;2.97;;
13432;SDS011;6789;47.678;9.158;2023-08-12T12:57:39;7.07;;;2.92;;
13432;SDS011;6789;47.678;9.158;2023-08-12T13:02:31;3.45;;;3.15;;
13432;SDS011;6789;47.678;9.158;2023-08-12T13:12:55;4.43;;;3.05;;
13432;SDS011;6789;47.678;9.158;2023-08-12T13:18:02;4.07;;;2.60;;
13432;SDS011;6789;47.678;9.158;2023-08-12T13:23:09;3.45;;;2.78;;
13432;SDS011;6789;47.678;9.158;2023-08-12T13:28:02;3.05;;;2.72;;
13432;SDS011;6789;47.678;9.158;2023-08-12T13:32:55;5.03;;;2.78;;
13432;SDS011;6789;47.678;9.158;2023-08-12T13:37:51;3.67;;;2.40;;
13432;SDS011;6789;47.678;9.158;2023-08-12T13:42:51;3.72;;;2.63;;
13432;SDS011;6789;47.678;9.158;2023-08-12T13:47:45;2.83;;;2.25;;
13432;SDS011;6789;47.678;9.158;2023-08-12T13:52:37;3.75;;;2.42;;
13432;SDS011;6789;47.678;9.158;2023-08-12T13:57:43;2.45;;;1.92;;
13432;SDS011;6789;47.678;9.158;2023-08-12T14:02:49;2.92;;;2.33;;
13432;SDS011;6789;47.678;9.158;2023-08-12T14:07:55;2.50;;;2.30;;
13432;SDS011;6789;47.678;9.158;2023-08-12T14:13:13;4.75;;;2.80;;
13432;SDS011;6789;47.678;9.158;2023-08-12T14:18:48;4.03;;;3.00;;
13432;SDS011;6789;47.678;9.158;2023-08-12T14:23:55;2.45;;;2.25;;
13432;SDS011;6789;47.678;9.158;2023-08-12T14:28:49;2.90;;;2.55;;
13432;SDS011;6789;47.678;9.158;2023-08-12T14:33:56;2.88;;;2.50;;
13432;SDS011;6789;47.678;9.158;2023-08-12T14:39:02;3.55;;;2.50;;
13432;SDS011;6789;47.678;9.158;2023-08-12T14:44:09;3.03;;;2.30;;
13432;SDS011;6789;47.678;9.158;2023-08-12T14:49:01;3.20;;;2.60;;
13432;SDS011;6789;47.678;9.158;2023-08-12T14:53:53;5.20;;;2.75;;
13432;SDS011;6789;47.678;9.158;2023-08-12T14:59:02;2.90;;;2.60;;
13432;SDS011;6789;47.678;9.158;2023-08-12T15:09:49;4.50;;;2.53;;
13432;SDS011;6789;47.678;9.158;2023-08-12T15:15:08;2.75;;;2.33;;
13432;SDS011;6789;47.678;9.158;2023-08-12T15:20:14;4.32;;;2.85;;
13432;SDS011;6789;47.678;9.158;2023-08-12T15:25:24;5.38;;;3.55;;
13432;SDS011;6789;47.678;9.158;2023-08-12T15:30:31;2.80;;;2.60;;
13432;SDS011;6789;47.678;9.158;2023-08-12T15:35:37;3.63;;;2.63;;
13432;SDS011;6789;47.678;9.158;2023-08-12T15:40:29;4.45;;;2.85;;
13432;SDS011;6789;47.678;9.158;2023-08-12T15:45:21;5.60;;;2.85;;
13432;SDS011;6789;47.678;9.158;2023-08-12T15:50:13;5.50;;;2.75;;
13432;SDS011;6789;47.678;9.158;2023-08-12T15:55:19;2.92;;;2.60;;
13432;SDS011;6789;47.678;9.158;2023-08-12T16:00:27;4.40;;;3.05;;
13432;SDS011;6789;47.678;9.158;2023-08-12T16:05:19;4.00;;;2.65;;
13432;SDS011;6789;47.678;9.158;2023-08-12T16:10:11;4.70;;;2.90;;
13432;SDS011;6789;47.678;9.158;2023-08-12T16:15:37;5.63;;;3.45;;
13432;SDS011;6789;47.678;9.158;2023-08-12T16:20:29;5.10;;;3.03;;
13432;SDS011;6789;47.678;9.158;2023-08-12T16:25:35;3.40;;;2.72;;
13432;SDS011;6789;47.678;9.158;2023-08-12T16:30:26;4.80;;;2.83;;
13432;SDS011;6789;47.678;9.158;2023-08-12T16:35:32;4.25;;;2.70;;
13432;SDS011;6789;47.678;9.158;2023-08-12T16:40:42;4.20;;;3.03;;
13432;SDS011;6789;47.678;9.158;2023-08-12T16:45:34;4.60;;;3.08;;
13432;SDS011;6789;47.678;9.158;2023-08-12T16:50:41;7.03;;;3.20;;
13432;SDS011;6789;47.678;9.158;2023-08-12T16:55:34;6.57;;;3.20;;
13432;SDS011;6789;47.678;9.158;2023-08-12T17:00:40;4.53;;;3.13;;
13432;SDS011;6789;47.678;9.158;2023-08-12T17:05:48;3.45;;;3.08;;
13432;SDS011;6789;47.678;9.158;2023-08-12T17:10:57;3.72;;;3.17;;
13432;SDS011;6789;47.678;9.158;2023-08-12T17:16:10;4.70;;;3.30;;
13432;SDS011;6789;47.678;9.158;2023-08-12T17:21:16;3.97;;;3.28;;
13432;SDS011;6789;47.678;9.158;2023-08-12T17:26:23;7.40;;;3.65;;
13432;SDS011;6789;47.678;9.158;2023-08-12T17:31:30;4.05;;;3.40;;
13432;SDS011;6789;47.678;9.158;2023-08-12T17:36:36;4.90;;;3.47;;
13432;SDS011;6789;47.678;9.158;2023-08-12T17:41:42;3.95;;;3.60;;
13432;SDS011;6789;47.678;9.158;2023-08-12T17:46:48;5.40;;;3.20;;
13432;SDS011;6789;47.678;9.158;2023-08-12T17:51:55;4.18;;;3.45;;
13432;SDS011;6789;47.678;9.158;2023-08-12T17:56:47;3.40;;;3.10;;
13432;SDS011;6789;47.678;9.158;2023-08-12T18:01:53;5.40;;;2.85;;
13432;SDS011;6789;47.678;9.158;2023-08-12T18:06:59;6.40;;;4.00;;
13432;SDS011;6789;47.678;9.158;2023-08-12T18:11:51;6.15;;;3.10;;
13432;SDS011;6789;47.678;9.158;2023-08-12T18:16:43;3.25;;;2.90;;
13432;SDS011;6789;47.678;9.158;2023-08-12T18:21:35;4.75;;;3.05;;
13432;SDS011;6789;47.678;9.158;2023-08-12T18:26:41;6.53;;;3.08;;
13432;SDS011;6789;47.678;9.158;2023-08-12T18:31:47;5.32;;;3.00;;
13432;SDS011;6789;47.678;9.158;2023-08-12T18:36:53;3.58;;;3.10;;
13432;SDS011;6789;47.678;9.158;2023-08-12T18:42:10;4.40;;;3.03;;
13432;SDS011;6789;47.678;9.158;2023-08-12T18:47:16;5.00;;;3.40;;
13432;SDS011;6789;47.678;9.158;2023-08-12T18:52:23;4.53;;;3.35;;
13432;SDS011;6789;47.678;9.158;2023-08-12T18:57:30;5.70;;;3.15;;
13432;SDS011;6789;47.678;9.158;2023-08-12T19:02:37;4.43;;;3.28;;
13432;SDS011;6789;47.678;9.158;2023-08-12T19:07:43;4.15;;;3.20;;
13432;SDS011;6789;47.678;9.158;2023-08-12T19:12:39;4.72;;;3.03;;
13432;SDS011;6789;47.678;9.158;2023-08-12T19:17:31;4.65;;;3.42;;
13432;SDS011;6789;47.678;9.158;2023-08-12T19:22:38;6.25;;;3.08;;
13432;SDS011;6789;47.678;9.158;2023-08-12T19:27:44;6.70;;;3.08;;
13432;SDS011;6789;47.678;9.158;2023-08-12T19:32:51;6.65;;;3.47;;
13432;SDS011;6789;47.678;9.158;2023-08-12T19:37:59;4.20;;;3.13;;
13432;SDS011;6789;47.678;9.158;2023-08-12T19:43:06;5.00;;;3.55;;
13432;SDS011;6789;47.678;9.158;2023-08-12T19:48:14;5.97;;;3.45;;
13432;SDS011;6789;47.678;9.158;2023-08-12T19:53:20;4.47;;;3.30;;
13432;SDS011;6789;47.678;9.158;2023-08-12T19:58:12;4.35;;;3.60;;
13432;SDS011;6789;47.678;9.158;2023-08-12T20:03:18;4.60;;;4.00;;
13432;SDS011;6789;47.678;9.158;2023-08-12T20:08:24;4.60;;;3.38;;
13432;SDS011;6789;47.678;9.158;2023-08-12T20:13:15;5.13;;;3.45;;
13432;SDS011;6789;47.678;9.158;2023-08-12T20:18:21;6.03;;;3.55;;
13432;SDS011;6789;47.678;9.158;2023-08-12T20:23:13;4.15;;;3.20;;
13432;SDS011;6789;47.678;9.158;2023-08-12T20:28:05;5.18;;;3.72;;
13432;SDS011;6789;47.678;9.158;2023-08-12T20:33:11;5.93;;;3.60;;
13432;SDS011;6789;47.678;9.158;2023-08-12T20:38:19;4.30;;;3.42;;
13432;SDS011;6789;47.678;9.158;2023-08-12T20:43:18;6.30;;;4.30;;
13432;SDS011;6789;47.678;9.158;2023-08-12T20:48:10;5.70;;;3.88;;
13432;SDS011;6789;47.678;9.158;2023-08-12T20:53:02;5.20;;;4.20;;
13432;SDS011;6789;47.678;9.158;2023-08-12T20:57:54;5.15;;;3.70;;
13432;SDS011;6789;47.678;9.158;2023-08-12T21:02:46;5.43;;;3.67;;
13432;SDS011;6789;47.678;9.158;2023-08-12T21:07:56;6.45;;;4.00;;
13432;SDS011;6789;47.678;9.158;2023-08-12T21:13:03;7.60;;;3.80;;
13432;SDS011;6789;47.678;9.158;2023-08-12T21:18:14;4.20;;;3.40;;
13432;SDS011;6789;47.678;9.158;2023-08-12T21:23:20;5.30;;;3.33;;
13432;SDS011;6789;47.678;9.158;2023-08-12T21:28:26;5.55;;;3.67;;
13432;SDS011;6789;47.678;9.158;2023-08-12T21:33:33;5.85;;;3.80;;
13432;SDS011;6789;47.678;9.158;2023-08-12T21:38:40;5.70;;;4.43;;
13432;SDS011;6789;47.678;9.158;2023-08-12T21:44:01;8.88;;;5.65;;
13432;SDS011;6789;47.678;9.158;2023-08-12T21:49:09;7.25;;;5.20;;
13432;SDS011;6789;47.678;9.158;2023-08-12T21:54:26;8.88;;;6.07;;
13432;SDS011;6789;47.678;9.158;2023-08-12T21:59:34;6.30;;;5.47;;
13432;SDS011;6789;47.678;9.158;2023-08-12T22:04:45;6.93;;;5.70;;
13432;SDS011;6789;47.678;9.158;2023-08-12T22:09:55;10.57;;;5.55;;
13432;SDS011;6789;47.678;9.158;2023-08-12T22:15:02;6.35;;;5.22;;
13432;SDS011;6789;47.678;9.158;2023-08-12T22:20:10;7.20;;;4.55;;
13432;SDS011;6789;47.678;9.158;2023-08-12T22:25:18;5.63;;;4.55;;
13432;SDS011;6789;47.678;9.158;2023-08-12T22:30:24;7.45;;;5.60;;
13432;SDS011;6789;47.678;9.158;2023-08-12T22:35:34;7.93;;;5.43;;
13432;SDS011;6789;47.678;9.158;2023-08-12T22:40:44;9.93;;;6.72;;
13432;SDS011;6789;47.678;9.158;2023-08-12T22:45:38;8.00;;;6.00;;
13432;SDS011;6789;47.678;9.158;2023-08-12T22:50:35;8.55;;;5.68;;
13432;SDS011;6789;47.678;9.158;2023-08-12T22:55:42;7.15;;;4.35;;
13432;SDS011;6789;47.678;9.158;2023-08-12T23:00:48;8.02;;;4.80;;
13432;SDS011;6789;47.678;9.158;2023-08-12T23:05:59;8.20;;;5.10;;
13432;SDS011;6789;47.678;9.158;2023-08-12T23:17:04;10.38;;;6.43;;
13432;SDS011;6789;47.678;9.158;2023-08-12T23:22:12;10.15;;;7.35;;
13432;SDS011;6789;47.678;9.158;2023-08-12T23:27:28;8.85;;;7.15;;
13432;SDS011;6789;47.678;9.158;2023-08-12T23:32:37;8.57;;;7.10;;
13432;SDS011;6789;47.678;9.158;2023-08-12T23:37:29;13.13;;;7.93;;
13432;SDS011;6789;47.678;9.158;2023-08-12T23:42:36;8.57;;;7.25;;
13432;SDS011;6789;47.678;9.158;2023-08-12T23:47:28;9.45;;;7.32;;
13432;SDS011;6789;47.678;9.158;2023-08-12T23:52:34;11.40;;;7.13;;
13432;SDS011;6789;47.678;9.158;2023-08-12T23:57:42;9.35;;;6.30;;
